Aviation Digital Data Service (ADDS)

Output produced by METARs form (0008 UTC 23 September 2017)
found at http://aviationweather.gov/adds/metars/
 
METAR text: KSPB 222353Z AUTO 32007KT 10SM BKN100 21/08 A3001 RMK AO2 SLP162 T02060083 10206 20128 56007
Conditions at: KSPB (SCAPPOOSE , OR, US) observed 2353 UTC 22 September 2017
Temperature: 20.6°C (69°F)
Dewpoint: 8.3°C (47°F) [RH = 45%]
Pressure (altimeter): 30.01 inches Hg (1016.3 mb)
[Sea-level pressure: 1016.2 mb]
Winds: from the NW (320 degrees) at 8 MPH (7 knots; 3.6 m/s)
Visibility: 10 or more miles (16+ km)
Ceiling: 10000 feet AGL
Clouds: broken clouds at 10000 feet AGL
Weather: automated observation with no human augmentation;
there may or may not be significant weather present at this time

METAR text: KSPB 222253Z AUTO 00000KT 10SM CLR 20/09 A3001 RMK AO2 SLP163 T02000094
Conditions at: KSPB (SCAPPOOSE , OR, US) observed 2253 UTC 22 September 2017
Temperature: 20.0°C (68°F)
Dewpoint: 9.4°C (49°F) [RH = 50%]
Pressure (altimeter): 30.01 inches Hg (1016.3 mb)
[Sea-level pressure: 1016.3 mb]
Winds: calm
Visibility: 10 or more miles (16+ km)
Ceiling: at least 12,000 feet AGL
Clouds: sky clear below 12,000 feet AGL
Weather: automated observation with no human augmentation;
there may or may not be significant weather present at this time